KWRI/WRI METAR and TAF weather

Enter ICAO airport designator
Station Type Date Time Source
KWRI METAR 2022/05/23 13:56 UTC NOAA

KWRI 231356Z AUTO 02009KT 10SM CLR 19/11 A3021 RMK AO2 SLP229 T01910114


Station Type Date Time Source
KWRI Decoded METAR 2022/05/23 13:56 UTC NOAA

Mcguire Air Force Base, NJ, United States (KWRI) 40-01N 074-36W
May 23, 2022 - 09:56 AM EDT / 2022.05.23 1356 UTC
Wind: from the NNE (020 degrees) at 10 MPH (9 KT):0
Visibility: 10 mile(s):0
Sky conditions: clear
Temperature: 66.4 F (19.1 C)
Dew Point: 52.5 F (11.4 C)
Relative Humidity: 60%
Pressure (altimeter): 30.21 in. Hg (1023 hPa)
ob: KWRI 231356Z AUTO 02009KT 10SM CLR 19/11 A3021 RMK AO2 SLP229 T01910114
cycle: 14

Station Type Date Time Source
KWRI TAF 2022/05/23 10:14 UTC NOAA

TAF KWRI 231000Z 2310/2416 36012G20KT 9999 BKN035 BKN180 QNH3010INS
BECMG 2313/2314 01010G18KT 9999 SCT150 QNH3018INS
BECMG 2318/2319 02009KT 9999 SCT080 QNH3014INS
BECMG 2400/2401 14007KT 9999 FEW030 BKN120 QNH3018INS
BECMG 2406/2407 06006KT 9999 VCSH BKN035 OVC080 QNH3019INS
BECMG 2408/2409 06007KT 9000 -SHRA BKN030 OVC060 QNH3020INS TX21/2320Z TN13/2409Z

Example: see airport list